Time,TemperatureF,DewpointF,PressureIn,WindDirection,WindDirectionDegrees,WindSpeedMPH,WindSpeedGustMPH,Humidity,HourlyPrecipIn,Conditions,Clouds,dailyrainin,SoftwareType,DateUTC
2013-03-05 00:10:00,23.5,18.3,29.77,West,270,0.0,-999.0,80,-99.99,,,0.00,Acu-Link.com,2013-03-05 05:10:00,
2013-03-05 00:25:00,24.4,19.1,29.78,NE,45,2.7,-999.0,80,-99.99,,,0.00,Acu-Link.com,2013-03-05 05:25:00,
2013-03-05 00:41:00,23.7,18.5,29.79,NNE,22,1.1,-999.0,80,-99.99,,,0.00,Acu-Link.com,2013-03-05 05:41:00,
2013-03-05 00:56:00,23.7,18.5,29.79,ESE,112,1.7,-999.0,80,-99.99,,,0.00,Acu-Link.com,2013-03-05 05:56:00,
2013-03-05 01:11:00,23.7,18.5,29.80,ESE,112,1.7,-999.0,80,-99.99,,,0.00,Acu-Link.com,2013-03-05 06:11:00,
2013-03-05 01:26:00,23.7,18.5,29.80,NNW,337,2.7,-999.0,80,-99.99,,,0.00,Acu-Link.com,2013-03-05 06:26:00,
2013-03-05 01:42:00,23.5,18.3,29.80,NNE,22,1.7,-999.0,80,-99.99,,,0.00,Acu-Link.com,2013-03-05 06:42:00,
2013-03-05 01:57:00,23.4,18.4,29.80,SSE,157,2.2,-999.0,81,-99.99,,,0.00,Acu-Link.com,2013-03-05 06:57:00,
2013-03-05 02:12:00,23.5,18.5,29.81,NW,315,0.0,-999.0,81,-99.99,,,0.00,Acu-Link.com,2013-03-05 07:12:00,
2013-03-05 02:27:00,23.5,18.5,29.82,North,0,3.2,-999.0,81,-99.99,,,0.00,Acu-Link.com,2013-03-05 07:27:00,
2013-03-05 02:43:00,23.5,18.5,29.82,West,270,2.2,-999.0,81,-99.99,,,0.00,Acu-Link.com,2013-03-05 07:43:00,
2013-03-05 02:58:00,24.3,19.3,29.83,WSW,247,1.1,-999.0,81,-99.99,,,0.00,Acu-Link.com,2013-03-05 07:58:00,
2013-03-05 03:13:00,23.5,18.5,29.83,East,90,0.0,-999.0,81,-99.99,,,0.00,Acu-Link.com,2013-03-05 08:13:00,
2013-03-05 03:29:00,23.4,18.4,29.84,SSE,157,0.0,-999.0,81,-99.99,,,0.00,Acu-Link.com,2013-03-05 08:29:00,
2013-03-05 03:44:00,23.4,18.7,29.85,East,90,0.0,-999.0,82,-99.99,,,0.00,Acu-Link.com,2013-03-05 08:44:00,
2013-03-05 03:59:00,23.4,18.7,29.85,WSW,247,1.7,-999.0,82,-99.99,,,0.00,Acu-Link.com,2013-03-05 08:59:00,
2013-03-05 04:15:00,23.4,18.7,29.86,SSW,202,1.7,-999.0,82,-99.99,,,0.00,Acu-Link.com,2013-03-05 09:15:00,
2013-03-05 04:30:00,23.5,18.8,29.85,WSW,247,2.7,-999.0,82,-99.99,,,0.00,Acu-Link.com,2013-03-05 09:30:00,
2013-03-05 04:45:00,23.4,18.7,29.86,West,270,0.0,-999.0,82,-99.99,,,0.00,Acu-Link.com,2013-03-05 09:45:00,
2013-03-05 05:00:00,23.4,18.7,29.87,NE,45,0.0,-999.0,82,-99.99,,,0.00,Acu-Link.com,2013-03-05 10:00:00,
2013-03-05 05:16:00,23.4,18.7,29.87,NNW,337,1.1,-999.0,82,-99.99,,,0.00,Acu-Link.com,2013-03-05 10:16:00,
2013-03-05 05:31:00,23.5,18.8,29.88,East,90,0.0,-999.0,82,-99.99,,,0.00,Acu-Link.com,2013-03-05 10:31:00,
2013-03-05 05:46:00,23.7,19.0,29.88,East,90,0.0,-999.0,82,-99.99,,,0.00,Acu-Link.com,2013-03-05 10:46:00,
2013-03-05 06:02:00,23.9,19.2,29.89,WSW,247,2.2,-999.0,82,-99.99,,,0.00,Acu-Link.com,2013-03-05 11:02:00,
2013-03-05 06:17:00,24.3,19.6,29.90,NW,315,2.2,-999.0,82,-99.99,,,0.00,Acu-Link.com,2013-03-05 11:17:00,
2013-03-05 06:32:00,24.3,19.6,29.90,NNE,22,1.7,-999.0,82,-99.99,,,0.00,Acu-Link.com,2013-03-05 11:32:00,
2013-03-05 06:48:00,24.6,19.9,29.91,NNW,337,0.0,-999.0,82,-99.99,,,0.00,Acu-Link.com,2013-03-05 11:48:00,
2013-03-05 07:03:00,25.0,20.3,29.91,NNW,337,2.2,-999.0,82,-99.99,,,0.00,Acu-Link.com,2013-03-05 12:03:00,
2013-03-05 07:18:00,25.7,20.7,29.92,ESE,112,3.2,-999.0,81,-99.99,,,0.00,Acu-Link.com,2013-03-05 12:18:00,
2013-03-05 07:33:00,26.4,20.8,29.92,ESE,112,1.1,-999.0,79,-99.99,,,0.00,Acu-Link.com,2013-03-05 12:33:00,
2013-03-05 07:48:00,27.1,21.2,29.93,SW,225,2.7,-999.0,78,-99.99,,,0.00,Acu-Link.com,2013-03-05 12:48:00,
2013-03-05 08:04:00,27.9,21.9,29.93,West,270,2.2,-999.0,78,-99.99,,,0.00,Acu-Link.com,2013-03-05 13:04:00,
2013-03-05 08:19:00,28.2,21.6,29.94,WNW,292,2.2,-999.0,76,-99.99,,,0.00,Acu-Link.com,2013-03-05 13:19:00,
2013-03-05 08:34:00,28.6,22.3,29.94,WSW,247,2.7,-999.0,77,-99.99,,,0.00,Acu-Link.com,2013-03-05 13:34:00,
2013-03-05 08:50:00,28.9,22.3,29.94,North,0,1.1,-999.0,76,-99.99,,,0.00,Acu-Link.com,2013-03-05 13:50:00,
2013-03-05 09:05:00,30.0,23.1,29.95,WSW,247,2.7,-999.0,75,-99.99,,,0.00,Acu-Link.com,2013-03-05 14:05:00,
2013-03-05 09:20:00,30.9,23.6,29.95,East,90,2.7,-999.0,74,-99.99,,,0.00,Acu-Link.com,2013-03-05 14:20:00,
2013-03-05 09:36:00,31.8,24.2,29.95,SSE,157,2.7,-999.0,73,-99.99,,,0.00,Acu-Link.com,2013-03-05 14:36:00,
2013-03-05 09:51:00,33.1,25.1,29.96,WSW,247,2.2,-999.0,72,-99.99,,,0.00,Acu-Link.com,2013-03-05 14:51:00,
2013-03-05 10:06:00,31.3,23.3,29.95,South,180,1.7,-999.0,72,-99.99,,,0.00,Acu-Link.com,2013-03-05 15:06:00,
2013-03-05 10:22:00,33.1,24.4,29.95,South,180,2.2,-999.0,70,-99.99,,,0.00,Acu-Link.com,2013-03-05 15:22:00,
2013-03-05 10:37:00,34.7,24.9,29.95,SW,225,2.2,-999.0,67,-99.99,,,0.00,Acu-Link.com,2013-03-05 15:37:00,
2013-03-05 10:52:00,39.4,28.3,29.94,SSE,157,2.7,-999.0,64,-99.99,,,0.00,Acu-Link.com,2013-03-05 15:52:00,
2013-03-05 11:07:00,42.8,29.5,29.94,North,0,2.7,-999.0,59,-99.99,,,0.00,Acu-Link.com,2013-03-05 16:07:00,
2013-03-05 11:22:00,44.1,29.0,29.94,SSW,202,2.2,-999.0,55,-99.99,,,0.00,Acu-Link.com,2013-03-05 16:22:00,
2013-03-05 11:38:00,47.3,31.0,29.94,East,90,1.7,-999.0,53,-99.99,,,0.00,Acu-Link.com,2013-03-05 16:38:00,
2013-03-05 11:53:00,38.3,25.6,29.94,West,270,3.2,-999.0,60,-99.99,,,0.00,Acu-Link.com,2013-03-05 16:53:00,
2013-03-05 12:08:00,38.7,26.0,29.94,SSW,202,1.7,-999.0,60,-99.99,,,0.00,Acu-Link.com,2013-03-05 17:08:00,
2013-03-05 12:23:00,39.9,26.8,29.94,NW,315,3.2,-999.0,59,-99.99,,,0.00,Acu-Link.com,2013-03-05 17:23:00,
2013-03-05 12:38:00,39.6,26.1,29.94,SSW,202,3.7,-999.0,58,-99.99,,,0.00,Acu-Link.com,2013-03-05 17:38:00,
2013-03-05 12:54:00,39.2,26.5,29.94,West,270,3.2,-999.0,60,-99.99,,,0.00,Acu-Link.com,2013-03-05 17:54:00,
2013-03-05 13:09:00,40.5,27.3,29.94,WNW,292,2.2,-999.0,59,-99.99,,,0.00,Acu-Link.com,2013-03-05 18:09:00,
2013-03-05 13:24:00,40.1,26.9,29.94,SW,225,1.7,-999.0,59,-99.99,,,0.00,Acu-Link.com,2013-03-05 18:24:00,
2013-03-05 13:39:00,40.5,27.3,29.94,SW,225,2.7,-999.0,59,-99.99,,,0.00,Acu-Link.com,2013-03-05 18:39:00,
2013-03-05 13:55:00,40.3,27.1,29.95,West,270,2.7,-999.0,59,-99.99,,,0.00,Acu-Link.com,2013-03-05 18:55:00,
2013-03-05 14:10:00,39.7,26.6,29.95,SSW,202,1.7,-999.0,59,-99.99,,,0.00,Acu-Link.com,2013-03-05 19:10:00,
2013-03-05 14:25:00,40.8,27.2,29.95,NNW,337,0.0,-999.0,58,-99.99,,,0.00,Acu-Link.com,2013-03-05 19:25:00,
2013-03-05 14:40:00,41.4,27.3,29.95,West,270,0.0,-999.0,57,-99.99,,,0.00,Acu-Link.com,2013-03-05 19:40:00,
2013-03-05 14:56:00,40.6,27.0,29.96,WNW,292,3.7,-999.0,58,-99.99,,,0.00,Acu-Link.com,2013-03-05 19:56:00,
2013-03-05 15:11:00,39.4,27.1,29.97,South,180,1.7,-999.0,61,-99.99,,,0.00,Acu-Link.com,2013-03-05 20:11:00,
2013-03-05 15:26:00,39.4,27.1,29.97,West,270,0.0,-999.0,61,-99.99,,,0.00,Acu-Link.com,2013-03-05 20:26:00,
2013-03-05 15:41:00,40.3,27.5,29.97,South,180,2.2,-999.0,60,-99.99,,,0.00,Acu-Link.com,2013-03-05 20:41:00,
2013-03-05 15:57:00,39.0,26.7,29.98,South,180,2.2,-999.0,61,-99.99,,,0.00,Acu-Link.com,2013-03-05 20:57:00,
2013-03-05 16:12:00,40.3,27.9,29.98,NNW,337,2.2,-999.0,61,-99.99,,,0.00,Acu-Link.com,2013-03-05 21:12:00,
2013-03-05 16:27:00,39.9,27.6,29.98,West,270,2.2,-999.0,61,-99.99,,,0.00,Acu-Link.com,2013-03-05 21:27:00,
2013-03-05 16:43:00,38.7,27.2,29.98,SW,225,2.2,-999.0,63,-99.99,,,0.00,Acu-Link.com,2013-03-05 21:43:00,
2013-03-05 16:58:00,38.1,27.0,29.99,SSW,202,1.7,-999.0,64,-99.99,,,0.00,Acu-Link.com,2013-03-05 21:58:00,
2013-03-05 17:13:00,37.0,27.1,30.00,West,270,1.1,-999.0,67,-99.99,,,0.00,Acu-Link.com,2013-03-05 22:13:00,
2013-03-05 17:28:00,36.1,26.6,30.00,WNW,292,0.0,-999.0,68,-99.99,,,0.00,Acu-Link.com,2013-03-05 22:28:00,
2013-03-05 17:44:00,35.2,27.4,30.00,South,180,0.0,-999.0,73,-99.99,,,0.00,Acu-Link.com,2013-03-05 22:44:00,
2013-03-05 17:59:00,34.3,27.5,30.00,SSW,202,1.1,-999.0,76,-99.99,,,0.00,Acu-Link.com,2013-03-05 22:59:00,
2013-03-05 18:14:00,33.8,27.7,30.01,SW,225,0.0,-999.0,78,-99.99,,,0.00,Acu-Link.com,2013-03-05 23:14:00,
2013-03-05 18:29:00,33.3,28.1,30.02,SSE,157,0.0,-999.0,81,-99.99,,,0.00,Acu-Link.com,2013-03-05 23:29:00,
2013-03-05 18:45:00,32.9,28.0,30.01,South,180,0.0,-999.0,82,-99.99,,,0.00,Acu-Link.com,2013-03-05 23:45:00,
2013-03-05 19:00:00,32.0,27.7,30.02,SW,225,0.0,-999.0,84,-99.99,,,0.00,Acu-Link.com,2013-03-06 00:00:00,
2013-03-05 19:15:00,31.1,26.8,30.02,SSW,202,0.0,-999.0,84,-99.99,,,0.00,Acu-Link.com,2013-03-06 00:15:00,
2013-03-05 19:30:00,30.2,26.5,30.02,NNW,337,0.0,-999.0,86,-99.99,,,0.00,Acu-Link.com,2013-03-06 00:30:00,
2013-03-05 19:46:00,29.5,26.1,30.03,SSE,157,0.0,-999.0,87,-99.99,,,0.00,Acu-Link.com,2013-03-06 00:46:00,
2013-03-05 20:01:00,29.1,25.7,30.02,NNE,22,0.0,-999.0,87,-99.99,,,0.00,Acu-Link.com,2013-03-06 01:01:00,
2013-03-05 20:16:00,28.6,25.8,30.03,SSW,202,0.0,-999.0,89,-99.99,,,0.00,Acu-Link.com,2013-03-06 01:16:00,
2013-03-05 20:31:00,28.4,25.3,30.03,South,180,0.0,-999.0,88,-99.99,,,0.00,Acu-Link.com,2013-03-06 01:31:00,
2013-03-05 20:47:00,28.4,25.6,30.03,NNW,337,0.0,-999.0,89,-99.99,,,0.00,Acu-Link.com,2013-03-06 01:47:00,
2013-03-05 21:02:00,28.4,25.8,30.03,South,180,0.0,-999.0,90,-99.99,,,0.00,Acu-Link.com,2013-03-06 02:02:00,
2013-03-05 21:17:00,28.4,25.8,30.03,East,90,0.0,-999.0,90,-99.99,,,0.00,Acu-Link.com,2013-03-06 02:17:00,
2013-03-05 21:33:00,28.8,26.2,30.03,WNW,292,0.0,-999.0,90,-99.99,,,0.00,Acu-Link.com,2013-03-06 02:33:00,
2013-03-05 21:48:00,28.9,26.3,30.03,WNW,292,0.0,-999.0,90,-99.99,,,0.00,Acu-Link.com,2013-03-06 02:48:00,
2013-03-05 22:03:00,29.1,26.5,30.03,ENE,67,0.0,-999.0,90,-99.99,,,0.00,Acu-Link.com,2013-03-06 03:03:00,
2013-03-05 22:19:00,29.3,26.7,30.03,SSW,202,0.0,-999.0,90,-99.99,,,0.00,Acu-Link.com,2013-03-06 03:19:00,
2013-03-05 22:34:00,29.5,26.9,30.03,North,0,0.0,-999.0,90,-99.99,,,0.00,Acu-Link.com,2013-03-06 03:34:00,
2013-03-05 22:49:00,29.7,27.1,30.03,SSW,202,0.0,-999.0,90,-99.99,,,0.00,Acu-Link.com,2013-03-06 03:49:00,
2013-03-05 23:04:00,29.7,27.1,30.04,ENE,67,0.0,-999.0,90,-99.99,,,0.00,Acu-Link.com,2013-03-06 04:04:00,
2013-03-05 23:20:00,29.8,27.2,30.04,SSE,157,0.0,-999.0,90,-99.99,,,0.00,Acu-Link.com,2013-03-06 04:20:00,
2013-03-05 23:35:00,29.8,27.2,30.04,West,270,0.0,-999.0,90,-99.99,,,0.00,Acu-Link.com,2013-03-06 04:35:00,
2013-03-05 23:50:00,29.8,27.2,30.04,NNW,337,0.0,-999.0,90,-99.99,,,0.00,Acu-Link.com,2013-03-06 04:50:00,